createdAt,value
2023-06-17T00:01:07.930Z,34.47
2023-06-17T00:04:10.743Z,21.02
2023-06-17T00:07:13.628Z,25.25
2023-06-17T00:10:16.410Z,13.20
2023-06-17T00:13:22.476Z,29.38
2023-06-17T00:16:25.314Z,15.90
2023-06-17T00:19:29.334Z,16.63
2023-06-17T00:22:35.832Z,18.17
2023-06-17T00:25:38.708Z,17.48
2023-06-17T00:28:41.492Z,10.88
2023-06-17T00:31:44.523Z,16.73
2023-06-17T00:34:47.233Z,14.65
2023-06-17T00:37:50.030Z,18.52
2023-06-17T00:40:53.047Z,23.23
2023-06-17T00:43:57.366Z,17.42
2023-06-17T00:47:00.217Z,31.13
2023-06-17T00:50:04.591Z,15.07
2023-06-17T00:53:07.687Z,25.33
2023-06-17T00:56:10.600Z,23.27
2023-06-17T00:59:13.539Z,17.23
2023-06-17T01:02:16.996Z,20.15
2023-06-17T01:05:20.034Z,17.70
2023-06-17T01:08:36.694Z,22.75
2023-06-17T01:11:40.743Z,26.70
2023-06-17T01:14:43.969Z,19.73
2023-06-17T01:17:47.973Z,21.63
2023-06-17T01:20:54.926Z,13.73
2023-06-17T01:24:02.576Z,14.43
2023-06-17T01:27:05.583Z,14.88
2023-06-17T01:30:09.906Z,13.57
2023-06-17T01:33:14.802Z,13.82
2023-06-17T01:36:24.649Z,20.17
2023-06-17T01:39:28.185Z,34.90
2023-06-17T01:42:33.244Z,20.30
2023-06-17T01:45:36.256Z,18.77
2023-06-17T01:48:40.998Z,11.38
2023-06-17T01:51:43.792Z,13.73
2023-06-17T01:54:46.668Z,12.60
2023-06-17T01:57:49.482Z,14.48
2023-06-17T02:00:52.709Z,20.15
2023-06-17T02:03:55.543Z,20.83
2023-06-17T02:06:58.719Z,19.63
2023-06-17T02:10:02.086Z,19.88
2023-06-17T02:13:05.074Z,21.52
2023-06-17T02:16:08.171Z,15.85
2023-06-17T02:19:11.272Z,15.75
2023-06-17T02:22:14.200Z,19.92
2023-06-17T02:25:17.285Z,13.95
2023-06-17T02:28:20.516Z,13.75
2023-06-17T02:31:23.861Z,18.88
2023-06-17T02:34:26.905Z,18.80
2023-06-17T02:37:30.210Z,29.45
2023-06-17T02:40:33.175Z,21.10
2023-06-17T02:43:36.153Z,21.63
2023-06-17T02:46:39.008Z,14.02
2023-06-17T02:49:41.810Z,21.17
2023-06-17T02:52:48.254Z,22.77
2023-06-17T02:55:51.012Z,18.75
2023-06-17T02:58:57.242Z,14.80
2023-06-17T03:02:00.438Z,17.58
2023-06-17T03:05:04.690Z,11.27
2023-06-17T03:08:08.127Z,25.35
2023-06-17T03:11:11.168Z,21.00
2023-06-17T03:14:21.078Z,16.20
2023-06-17T03:17:26.630Z,20.27
2023-06-17T03:20:30.236Z,21.42
2023-06-17T03:23:33.497Z,22.63
2023-06-17T03:26:36.452Z,15.38
2023-06-17T03:29:39.232Z,14.40
2023-06-17T03:32:46.280Z,18.17
2023-06-17T03:35:49.370Z,11.40
2023-06-17T03:38:52.777Z,23.40
2023-06-17T03:41:55.843Z,11.15
2023-06-17T03:44:58.728Z,8.00
2023-06-17T03:48:01.699Z,12.07
2023-06-17T03:51:05.391Z,14.73
2023-06-17T03:54:09.553Z,11.95
2023-06-17T03:57:13.452Z,9.43
2023-06-17T04:00:17.457Z,14.48
2023-06-17T04:03:26.861Z,28.50
2023-06-17T04:06:30.626Z,28.65
2023-06-17T04:09:33.341Z,26.88
2023-06-17T04:12:40.105Z,28.40
2023-06-17T04:18:47.068Z,39.28
2023-06-17T04:21:50.538Z,47.47
2023-06-17T04:24:57.360Z,24.75
2023-06-17T04:28:03.048Z,22.95
2023-06-17T04:31:12.485Z,37.63
2023-06-17T04:34:23.447Z,35.08
2023-06-17T04:37:29.082Z,45.03
2023-06-17T04:40:33.566Z,33.75
2023-06-17T04:43:41.347Z,20.63
2023-06-17T04:46:47.579Z,18.42
2023-06-17T04:49:53.111Z,35.90
2023-06-17T04:52:56.458Z,40.15
2023-06-17T04:56:02.022Z,36.85
2023-06-17T04:59:06.091Z,46.35
2023-06-17T05:02:09.189Z,23.90
2023-06-17T05:05:11.939Z,22.95
2023-06-17T05:08:14.946Z,23.33
2023-06-17T05:11:17.771Z,27.38
2023-06-17T05:14:21.978Z,56.75
2023-06-17T05:17:25.359Z,24.63
2023-06-17T05:20:28.315Z,24.35
2023-06-17T05:23:32.374Z,31.88
2023-06-17T05:26:35.637Z,26.48
2023-06-17T05:29:40.510Z,15.80
2023-06-17T05:32:45.377Z,20.30
2023-06-17T05:35:48.362Z,32.38
2023-06-17T05:38:51.382Z,21.27
2023-06-17T05:41:54.581Z,23.83
2023-06-17T05:44:57.684Z,16.08
2023-06-17T05:48:01.614Z,38.47
2023-06-17T05:51:06.847Z,27.00
2023-06-17T05:54:09.870Z,36.33
2023-06-17T05:57:12.805Z,30.67
2023-06-17T06:00:16.710Z,47.40
2023-06-17T06:03:21.344Z,17.98
2023-06-17T06:06:25.251Z,18.50
2023-06-17T06:09:28.252Z,18.58
2023-06-17T06:12:31.845Z,40.88
2023-06-17T06:15:34.935Z,20.63
2023-06-17T06:18:38.089Z,27.80
2023-06-17T06:21:40.824Z,27.50
2023-06-17T06:24:43.812Z,22.00
2023-06-17T06:27:46.783Z,25.55
2023-06-17T06:30:51.391Z,42.03
2023-06-17T06:33:54.326Z,17.13
2023-06-17T06:36:58.146Z,32.95
2023-06-17T06:40:01.916Z,20.38
2023-06-17T06:43:07.971Z,51.92
2023-06-17T06:46:33.069Z,35.15
2023-06-17T06:49:36.298Z,39.58
2023-06-17T06:52:39.752Z,25.95
2023-06-17T06:55:43.288Z,29.95
2023-06-17T06:58:48.600Z,45.83
2023-06-17T07:01:51.584Z,45.85
2023-06-17T07:04:54.646Z,59.50
2023-06-17T07:08:03.867Z,45.88
2023-06-17T07:11:07.087Z,47.53
2023-06-17T07:14:10.133Z,65.65
2023-06-17T07:17:13.294Z,36.55
2023-06-17T07:20:16.437Z,45.08
2023-06-17T07:23:21.490Z,38.65
2023-06-17T07:26:25.179Z,52.70
2023-06-17T07:29:28.524Z,57.17
2023-06-17T07:32:32.217Z,32.05
2023-06-17T07:35:35.608Z,49.92
2023-06-17T07:38:38.797Z,31.13
2023-06-17T07:41:41.852Z,70.72
2023-06-17T07:44:46.171Z,76.40
2023-06-17T07:47:50.050Z,53.08
2023-06-17T07:50:53.593Z,181.32
2023-06-17T07:53:56.423Z,62.75
2023-06-17T07:56:59.397Z,55.72
2023-06-17T08:00:02.499Z,38.38
2023-06-17T08:03:15.507Z,51.38
2023-06-17T08:06:18.835Z,75.13
2023-06-17T08:09:22.064Z,68.70
2023-06-17T08:12:24.974Z,74.18
2023-06-17T08:15:28.666Z,123.80
2023-06-17T08:18:31.917Z,122.47
2023-06-17T08:21:35.747Z,197.10
2023-06-17T08:24:39.046Z,100.47
2023-06-17T08:27:46.027Z,94.88
2023-06-17T08:30:51.090Z,95.68
2023-06-17T08:33:54.119Z,144.65
2023-06-17T08:36:56.955Z,81.68
2023-06-17T08:39:59.908Z,89.43
2023-06-17T08:43:03.715Z,144.60
2023-06-17T08:46:07.088Z,107.78
2023-06-17T08:49:10.377Z,128.52
2023-06-17T08:52:15.412Z,162.20
2023-06-17T08:55:18.350Z,138.13
2023-06-17T08:58:21.912Z,115.13
2023-06-17T09:01:26.225Z,154.57
2023-06-17T09:04:29.705Z,165.18
2023-06-17T09:07:33.050Z,143.70
2023-06-17T09:10:46.285Z,279.02
2023-06-17T09:13:52.373Z,205.75
2023-06-17T09:16:55.483Z,298.13
2023-06-17T09:20:12.065Z,213.68
2023-06-17T09:23:19.128Z,325.20
2023-06-17T09:26:27.340Z,399.15
2023-06-17T09:29:31.495Z,223.20
2023-06-17T09:32:42.707Z,196.30
2023-06-17T09:35:45.622Z,318.48
2023-06-17T09:38:49.525Z,275.33
2023-06-17T09:41:56.033Z,290.70
2023-06-17T09:48:06.087Z,320.98
2023-06-17T09:51:13.910Z,340.65
2023-06-17T09:54:17.090Z,441.83
2023-06-17T09:57:20.605Z,418.30
2023-06-17T10:00:25.817Z,267.55
2023-06-17T10:03:28.980Z,596.40
2023-06-17T10:06:33.245Z,380.42
2023-06-17T10:09:36.648Z,316.00
2023-06-17T10:12:41.924Z,405.13
2023-06-17T10:15:45.742Z,346.55
2023-06-17T10:18:50.425Z,495.50
2023-06-17T10:21:55.426Z,644.20
2023-06-17T10:24:58.466Z,612.28
2023-06-17T10:28:04.563Z,472.05
2023-06-17T10:31:22.870Z,394.17
2023-06-17T10:34:25.847Z,352.13
2023-06-17T10:37:28.866Z,390.27
2023-06-17T10:40:37.119Z,459.90
2023-06-17T10:43:40.051Z,546.13
2023-06-17T10:46:43.099Z,788.45
2023-06-17T10:49:47.545Z,632.70
2023-06-17T10:52:56.914Z,722.35
2023-06-17T10:56:01.408Z,476.38
2023-06-17T10:59:05.034Z,440.65
2023-06-17T11:02:08.747Z,551.22
2023-06-17T11:05:11.699Z,624.70
2023-06-17T11:08:16.711Z,524.70
2023-06-17T11:11:19.834Z,572.03
2023-06-17T11:14:23.406Z,669.95
2023-06-17T11:17:26.652Z,668.75
2023-06-17T11:20:31.896Z,652.47
2023-06-17T11:23:36.474Z,559.42
2023-06-17T11:26:39.258Z,834.55
2023-06-17T11:29:43.206Z,1033.38
2023-06-17T11:32:46.496Z,709.10
2023-06-17T11:35:50.101Z,905.15
2023-06-17T11:38:54.897Z,613.75
2023-06-17T11:42:04.838Z,749.30
2023-06-17T11:45:09.002Z,781.67
2023-06-17T11:48:13.308Z,896.08
2023-06-17T11:51:19.512Z,697.50
2023-06-17T11:54:27.696Z,807.40
2023-06-17T11:57:30.708Z,720.85
2023-06-17T12:00:39.286Z,964.33
2023-06-17T12:03:48.651Z,1123.68
2023-06-17T12:06:51.836Z,986.65
2023-06-17T12:09:55.798Z,1077.68
2023-06-17T12:12:59.194Z,996.03
2023-06-17T12:16:02.135Z,1023.42
2023-06-17T12:19:07.817Z,916.95
2023-06-17T12:22:14.697Z,1002.53
2023-06-17T12:25:18.090Z,1156.45
2023-06-17T12:28:24.778Z,1183.35
2023-06-17T12:31:28.368Z,993.53
2023-06-17T12:34:31.303Z,926.30
2023-06-17T12:37:36.087Z,797.42
2023-06-17T12:40:39.084Z,1041.70
2023-06-17T12:43:42.820Z,1059.47
2023-06-17T12:46:47.073Z,833.00
2023-06-17T12:49:50.653Z,1402.65
2023-06-17T12:52:55.906Z,1469.70
2023-06-17T12:56:00.107Z,1062.67
2023-06-17T12:59:04.133Z,1089.45
2023-06-17T13:02:07.626Z,1229.63
2023-06-17T13:05:11.006Z,1044.38
2023-06-17T13:08:13.930Z,1335.35
2023-06-17T13:11:17.148Z,999.72
2023-06-17T13:14:20.904Z,1081.28
2023-06-17T13:17:25.159Z,944.25
2023-06-17T13:20:28.005Z,892.30
2023-06-17T13:23:31.741Z,990.20
2023-06-17T13:26:34.847Z,1022.95
2023-06-17T13:29:37.750Z,1744.20
2023-06-17T13:32:41.887Z,1040.78
2023-06-17T13:35:44.905Z,1086.13
2023-06-17T13:38:47.736Z,1073.85
2023-06-17T13:41:50.716Z,1105.20
2023-06-17T13:44:53.630Z,1262.75
2023-06-17T13:47:56.503Z,1158.07
2023-06-17T13:51:00.126Z,1121.57
2023-06-17T13:54:03.553Z,1191.70
2023-06-17T13:57:06.654Z,1123.80
2023-06-17T14:00:11.650Z,1212.10
2023-06-17T14:03:16.991Z,1259.57
2023-06-17T14:06:21.576Z,1096.00
2023-06-17T14:09:24.522Z,1138.80
2023-06-17T14:12:27.354Z,1090.65
2023-06-17T14:15:30.106Z,1169.88
2023-06-17T14:18:33.191Z,1202.05
2023-06-17T14:21:36.763Z,1075.20
2023-06-17T14:24:40.615Z,1081.68
2023-06-17T14:27:44.370Z,1290.47
2023-06-17T14:30:47.572Z,1089.65
2023-06-17T14:33:50.973Z,1257.40
2023-06-17T14:36:56.239Z,1054.88
2023-06-17T14:39:59.541Z,1181.20
2023-06-17T14:43:04.131Z,1151.18
2023-06-17T14:46:07.369Z,1238.65
2023-06-17T14:49:10.616Z,1182.60
2023-06-17T14:52:14.204Z,1468.85
2023-06-17T14:55:17.400Z,1306.47
2023-06-17T14:58:20.485Z,1428.05
2023-06-17T15:01:24.296Z,1208.85
2023-06-17T15:04:27.876Z,1388.55
2023-06-17T15:07:30.773Z,1176.47
2023-06-17T15:10:33.910Z,1173.00
2023-06-17T15:13:37.029Z,1202.07
2023-06-17T15:16:39.972Z,1118.63
2023-06-17T15:19:43.776Z,1089.57
2023-06-17T15:22:46.539Z,1151.05
2023-06-17T15:25:49.483Z,1042.95
2023-06-17T15:28:52.635Z,1285.15
2023-06-17T15:31:55.874Z,1242.95
2023-06-17T15:34:59.885Z,1387.32
2023-06-17T15:38:02.735Z,1302.88
2023-06-17T15:41:05.502Z,1276.93
2023-06-17T15:44:08.457Z,1207.45
2023-06-17T15:47:11.760Z,1217.25
2023-06-17T15:50:14.673Z,1133.60
2023-06-17T15:53:17.706Z,1233.53
2023-06-17T15:56:20.867Z,1147.97
2023-06-17T15:59:23.710Z,1309.75
2023-06-17T16:02:27.486Z,1265.10
2023-06-17T16:05:30.445Z,1258.93
2023-06-17T16:08:33.526Z,1267.40
2023-06-17T16:11:36.358Z,1265.75
2023-06-17T16:14:39.292Z,1226.82
2023-06-17T16:17:42.670Z,1174.20
2023-06-17T16:20:46.150Z,1251.07
2023-06-17T16:23:49.104Z,1206.65
2023-06-17T16:26:52.146Z,1081.05
2023-06-17T16:29:55.127Z,1038.50
2023-06-17T16:32:58.533Z,1021.72
2023-06-17T16:36:01.867Z,1010.92
2023-06-17T16:39:05.128Z,1055.53
2023-06-17T16:42:08.287Z,1057.65
2023-06-17T16:45:11.186Z,906.13
2023-06-17T16:48:14.336Z,881.80
2023-06-17T16:51:17.268Z,838.88
2023-06-17T16:54:20.212Z,781.45
2023-06-17T16:57:23.732Z,782.45
2023-06-17T17:00:30.985Z,737.22
2023-06-17T17:03:34.481Z,741.63
2023-06-17T17:06:38.123Z,782.75
2023-06-17T17:09:41.798Z,801.63
2023-06-17T17:12:44.740Z,739.92
2023-06-17T17:15:47.844Z,780.42
2023-06-17T17:18:50.784Z,723.15
2023-06-17T17:21:53.621Z,688.22
2023-06-17T17:24:58.530Z,682.97
2023-06-17T17:28:01.472Z,613.65
2023-06-17T17:31:04.683Z,558.55
2023-06-17T17:34:07.529Z,529.47
2023-06-17T17:37:10.498Z,490.02
2023-06-17T17:40:13.567Z,487.38
2023-06-17T17:43:16.650Z,445.50
2023-06-17T17:46:19.475Z,432.27
2023-06-17T17:49:23.315Z,466.95
2023-06-17T17:52:26.439Z,447.15
2023-06-17T17:55:30.043Z,518.60
2023-06-17T17:58:33.765Z,474.70
2023-06-17T18:01:36.637Z,386.92
2023-06-17T18:04:39.892Z,398.95
2023-06-17T18:07:42.744Z,394.02
2023-06-17T18:10:45.538Z,330.40
2023-06-17T18:13:48.377Z,332.60
2023-06-17T18:16:51.309Z,276.70
2023-06-17T18:19:54.186Z,199.45
2023-06-17T18:22:56.997Z,197.98
2023-06-17T18:26:00.069Z,351.80
2023-06-17T18:29:03.327Z,240.52
2023-06-17T18:32:06.303Z,217.60
2023-06-17T18:35:09.543Z,154.38
2023-06-17T18:38:12.430Z,158.13
2023-06-17T18:41:15.894Z,173.13
2023-06-17T18:44:18.766Z,139.00
2023-06-17T18:47:21.963Z,141.52
2023-06-17T18:50:25.481Z,112.78
2023-06-17T18:53:28.809Z,92.43
2023-06-17T18:56:31.858Z,127.15
2023-06-17T18:59:35.069Z,109.85
2023-06-17T19:02:38.438Z,93.28
2023-06-17T19:05:41.396Z,69.93
2023-06-17T19:08:44.970Z,65.80
2023-06-17T19:11:48.226Z,59.90
2023-06-17T19:14:51.712Z,43.30
2023-06-17T19:17:55.059Z,57.30
2023-06-17T19:20:58.462Z,46.88
2023-06-17T19:24:01.668Z,38.88
2023-06-17T19:27:05.207Z,42.60
2023-06-17T19:30:08.671Z,36.78
2023-06-17T19:33:11.647Z,29.73
2023-06-17T19:36:14.858Z,27.15
2023-06-17T19:39:17.713Z,29.85
2023-06-17T19:42:21.009Z,23.75
2023-06-17T19:45:29.648Z,32.53
2023-06-17T19:48:32.802Z,25.40
2023-06-17T19:51:35.949Z,22.55
2023-06-17T19:54:38.726Z,31.80
2023-06-17T19:57:41.887Z,30.15
2023-06-17T20:00:46.279Z,16.08
2023-06-17T20:03:51.939Z,19.25
2023-06-17T20:06:55.018Z,19.83
2023-06-17T20:09:58.017Z,18.30
2023-06-17T20:13:01.222Z,18.38
2023-06-17T20:16:05.320Z,17.95
2023-06-17T20:19:08.537Z,18.42
2023-06-17T20:22:11.757Z,17.88
2023-06-17T20:25:15.034Z,19.92
2023-06-17T20:28:18.083Z,22.98
2023-06-17T20:31:22.014Z,18.08
2023-06-17T20:34:25.508Z,22.17
2023-06-17T20:37:28.939Z,18.73
2023-06-17T20:40:31.876Z,23.05
2023-06-17T20:43:35.013Z,16.05
2023-06-17T20:46:38.198Z,14.10
2023-06-17T20:49:41.425Z,17.27
2023-06-17T20:52:44.412Z,17.00
2023-06-17T20:55:47.268Z,19.27
2023-06-17T20:58:52.794Z,11.65
2023-06-17T21:01:56.132Z,9.13
2023-06-17T21:04:59.401Z,13.68
2023-06-17T21:08:02.482Z,17.80
2023-06-17T21:11:05.666Z,15.88
2023-06-17T21:14:08.599Z,12.95
2023-06-17T21:17:11.715Z,16.67
2023-06-17T21:20:14.876Z,13.73
2023-06-17T21:23:17.747Z,18.15
2023-06-17T21:26:20.637Z,17.05
2023-06-17T21:29:23.408Z,13.23
2023-06-17T21:32:26.270Z,18.10
2023-06-17T21:35:29.030Z,11.43
2023-06-17T21:38:32.176Z,13.30
2023-06-17T21:41:35.450Z,13.07
2023-06-17T21:44:38.638Z,13.73
2023-06-17T21:47:41.539Z,11.13
2023-06-17T21:50:44.435Z,11.60
2023-06-17T21:53:47.725Z,17.08
2023-06-17T21:56:50.847Z,14.43
2023-06-17T21:59:54.718Z,12.20
2023-06-17T22:02:57.448Z,10.50
2023-06-17T22:06:00.304Z,14.38
2023-06-17T22:09:03.556Z,13.35
2023-06-17T22:12:07.546Z,12.80
2023-06-17T22:15:11.309Z,14.77
2023-06-17T22:18:14.239Z,15.38
2023-06-17T22:21:17.095Z,13.02
2023-06-17T22:24:20.067Z,15.20
2023-06-17T22:27:23.115Z,12.45
2023-06-17T22:30:26.815Z,19.98
2023-06-17T22:33:30.150Z,15.40
2023-06-17T22:36:33.073Z,20.80
2023-06-17T22:39:35.933Z,13.88
2023-06-17T22:42:38.972Z,11.80
2023-06-17T22:45:41.886Z,12.68
2023-06-17T22:48:44.817Z,15.48
2023-06-17T22:51:47.692Z,12.48
2023-06-17T22:54:50.555Z,7.43
2023-06-17T22:57:53.461Z,11.23
2023-06-17T23:00:57.476Z,9.20
2023-06-17T23:04:00.344Z,11.40
2023-06-17T23:07:03.231Z,6.57
2023-06-17T23:10:06.485Z,7.70
2023-06-17T23:13:09.399Z,8.00
2023-06-17T23:16:12.299Z,8.77
2023-06-17T23:19:15.303Z,7.25
2023-06-17T23:22:19.157Z,9.55
2023-06-17T23:25:21.933Z,8.20
2023-06-17T23:28:26.225Z,7.85
2023-06-17T23:31:30.284Z,10.18
2023-06-17T23:34:33.055Z,9.38
2023-06-17T23:37:36.008Z,10.93
2023-06-17T23:40:39.305Z,9.07
2023-06-17T23:43:42.106Z,7.13
2023-06-17T23:46:45.548Z,8.93
2023-06-17T23:49:48.644Z,6.40
2023-06-17T23:52:51.665Z,7.30
2023-06-17T23:55:54.865Z,5.63
2023-06-17T23:58:57.656Z,7.72
